Pfeifer, KS (67660)

3:47 AM CDT on April 25, 2015 (GMT -0500)
Hays Regional | | Change Station
CLOSE
Current Station
Airport
Location: Hays,
Elevation: 1998 ft
Nearby Weather Stations

Elev 1998 ft 38.84 °N, 99.27 °W | Updated 12 minutes ago

Rain
Rain
54 °F
Feels Like 54 °F
N
23
Wind Variable Wind from NNW
Gusts 31 mph

Today
High -- | Low -- °F
--% Chance of Precip.
Yesterday
High -- | Low -- °F
Precip. -- in
6:46 AM 8:22 PM
Waxing Crescent, 44% visible
Pressure 29.55 in
Visibility 10.0 miles
Clouds Mostly Cloudy 6500 ft
Overcast 8000 ft
Dew Point 46 °F
Humidity 77%
Rainfall 0.00 in
Snow Depth Not available.
UV 0 out of 12
Pollen 10.50 out of 12
Air Quality Not available.
Flu Activity Sporadic
METAR KHYS 250835Z 33020G27KT 10SM BKN065 OVC080 12/08 A2955 RMK AO1

More Conditions Fewer Conditions

Pressure 29.55 in
Visibility 10.0 miles
Clouds Mostly Cloudy 6500 ft
Overcast 8000 ft
Dew Point 46 °F
Humidity 77%
Rainfall 0.00 in
Snow Depth Not available.
UV 0 out of 12
Pollen 10.50 out of 12
Air Quality Not available.
Flu Activity Sporadic
METAR KHYS 250835Z 33020G27KT 10SM BKN065 OVC080 12/08 A2955 RMK AO1

More Conditions Fewer Conditions

10-Day Weather Forecast

Almanac

Astronomy

Apr. 25, 2015 Rise Set
Actual Time
Civil Twilight
Nautical Twilight
Astronomical Twilight
Moon
Length of Visible Light
Length of Day
Tomorrow will be .
, % of the Moon is Illuminated

Today's Extremes

State Highs State Lows

Community

WunderPhotos

Upload Photos

1,816,624 photos uploaded!

WunderBlogs® & News

Nearby

Air Quality

  Air Quality AQ Index Pollutant
Not available.

Snow Depth

Station Depth Elevation

Earthquake Activity

City Distance Mag. Time & Date
Minimum magnitude displayed is 2.5.

Coastal Water Temperatures

Place Temperature

Stations

Nearby Weather Stations

Station Location Temp. Windchill Dew Point Humidity Wind Precip. Elev Updated Type